createdAt,value
2022-10-06T00:00:48.246Z,10.77
2022-10-06T00:03:15.537Z,10.77
2022-10-06T00:05:42.696Z,10.74
2022-10-06T00:08:10.352Z,10.61
2022-10-06T00:10:37.499Z,10.50
2022-10-06T00:13:04.155Z,10.61
2022-10-06T00:15:32.433Z,10.35
2022-10-06T00:17:59.738Z,10.38
2022-10-06T00:20:26.905Z,10.36
2022-10-06T00:22:54.111Z,10.46
2022-10-06T00:25:23.090Z,10.48
2022-10-06T00:27:51.029Z,10.41
2022-10-06T00:30:25.463Z,10.53
2022-10-06T00:32:52.694Z,10.58
2022-10-06T00:35:19.674Z,10.63
2022-10-06T00:37:46.494Z,10.61
2022-10-06T00:40:13.292Z,10.68
2022-10-06T00:42:49.321Z,10.64
2022-10-06T00:45:16.990Z,10.71
2022-10-06T00:47:43.630Z,10.71
2022-10-06T00:50:11.923Z,10.78
2022-10-06T00:52:39.331Z,10.73
2022-10-06T00:55:09.555Z,10.76
2022-10-06T00:57:40.014Z,10.75
2022-10-06T01:00:08.058Z,10.82
2022-10-06T01:02:54.015Z,10.85
2022-10-06T01:05:25.770Z,10.84
2022-10-06T01:07:52.842Z,10.82
2022-10-06T01:10:19.773Z,10.84
2022-10-06T01:12:46.774Z,10.81
2022-10-06T01:15:13.552Z,10.87
2022-10-06T01:17:44.266Z,10.85
2022-10-06T01:20:13.045Z,10.77
2022-10-06T01:22:43.250Z,10.83
2022-10-06T01:25:11.287Z,10.75
2022-10-06T01:27:39.375Z,10.81
2022-10-06T01:30:10.302Z,10.79
2022-10-06T01:32:38.412Z,10.78
2022-10-06T01:35:05.744Z,10.78
2022-10-06T01:37:32.522Z,10.81
2022-10-06T01:39:59.404Z,10.77
2022-10-06T01:42:26.402Z,10.74
2022-10-06T01:44:53.038Z,10.71
2022-10-06T01:47:19.891Z,10.77
2022-10-06T01:49:46.621Z,10.76
2022-10-06T01:52:13.491Z,10.76
2022-10-06T01:54:40.473Z,10.73
2022-10-06T01:57:08.542Z,10.71
2022-10-06T01:59:35.343Z,10.68
2022-10-06T02:02:02.117Z,10.71
2022-10-06T02:04:28.910Z,10.65
2022-10-06T02:06:55.785Z,10.64
2022-10-06T02:09:23.541Z,10.62
2022-10-06T02:11:50.828Z,10.52
2022-10-06T02:14:18.253Z,10.52
2022-10-06T02:16:45.119Z,10.55
2022-10-06T02:19:11.943Z,10.52
2022-10-06T02:21:39.011Z,10.48
2022-10-06T02:24:06.125Z,10.53
2022-10-06T02:26:32.803Z,10.49
2022-10-06T02:28:59.463Z,10.54
2022-10-06T02:31:26.346Z,10.56
2022-10-06T02:33:53.210Z,10.61
2022-10-06T02:36:20.221Z,10.59
2022-10-06T02:38:46.943Z,10.61
2022-10-06T02:41:13.694Z,10.56
2022-10-06T02:43:40.478Z,10.58
2022-10-06T02:46:08.701Z,10.52
2022-10-06T02:48:35.442Z,10.47
2022-10-06T02:51:04.737Z,10.47
2022-10-06T02:53:31.792Z,10.51
2022-10-06T02:56:00.767Z,10.55
2022-10-06T02:58:30.505Z,10.55
2022-10-06T03:01:05.064Z,10.64
2022-10-06T03:03:32.465Z,10.63
2022-10-06T03:06:01.927Z,10.63
2022-10-06T03:08:28.909Z,10.61
2022-10-06T03:10:59.647Z,10.66
2022-10-06T03:13:26.435Z,10.48
2022-10-06T03:15:53.181Z,10.57
2022-10-06T03:18:19.969Z,10.57
2022-10-06T03:20:46.587Z,10.54
2022-10-06T03:23:13.783Z,10.57
2022-10-06T03:25:40.978Z,10.57
2022-10-06T03:28:07.663Z,10.33
2022-10-06T03:30:34.587Z,10.40
2022-10-06T03:33:01.950Z,10.54
2022-10-06T03:35:28.741Z,10.56
2022-10-06T03:37:56.165Z,10.56
2022-10-06T03:40:22.786Z,10.45
2022-10-06T03:42:49.427Z,10.52
2022-10-06T03:45:16.130Z,10.36
2022-10-06T03:47:43.129Z,10.42
2022-10-06T03:50:17.662Z,10.43
2022-10-06T03:52:44.451Z,10.47
2022-10-06T03:55:11.206Z,10.42
2022-10-06T03:57:37.816Z,10.45
2022-10-06T04:00:04.948Z,10.40
2022-10-06T04:02:31.699Z,10.38
2022-10-06T04:04:58.502Z,10.38
2022-10-06T04:07:25.322Z,10.40
2022-10-06T04:09:51.931Z,10.38
2022-10-06T04:12:18.891Z,10.32
2022-10-06T04:14:45.680Z,10.33
2022-10-06T04:17:12.348Z,10.30
2022-10-06T04:19:39.117Z,10.19
2022-10-06T04:22:05.878Z,10.22
2022-10-06T04:24:32.592Z,10.20
2022-10-06T04:27:19.449Z,10.16
2022-10-06T04:29:46.141Z,10.23
2022-10-06T04:32:13.141Z,10.16
2022-10-06T04:34:39.979Z,10.11
2022-10-06T04:37:07.265Z,10.09
2022-10-06T04:39:34.018Z,10.07
2022-10-06T04:42:00.962Z,10.04
2022-10-06T04:44:27.617Z,10.04
2022-10-06T04:46:54.414Z,10.00
2022-10-06T04:49:21.092Z,10.12
2022-10-06T04:51:49.303Z,10.18
2022-10-06T04:54:16.056Z,10.10
2022-10-06T04:56:42.751Z,10.12
2022-10-06T04:59:09.386Z,10.21
2022-10-06T05:01:37.014Z,10.38
2022-10-06T05:04:04.721Z,10.19
2022-10-06T05:06:32.870Z,10.46
2022-10-06T05:09:04.089Z,10.62
2022-10-06T05:11:31.994Z,10.63
2022-10-06T05:13:59.223Z,10.78
2022-10-06T05:16:27.550Z,10.92
2022-10-06T05:18:54.547Z,10.70
2022-10-06T05:21:22.807Z,10.94
2022-10-06T05:23:49.574Z,11.23
2022-10-06T05:26:20.705Z,11.43
2022-10-06T05:28:47.922Z,11.52
2022-10-06T05:31:16.371Z,11.68
2022-10-06T05:33:43.152Z,11.51
2022-10-06T05:36:14.129Z,11.88
2022-10-06T05:38:40.878Z,12.17
2022-10-06T05:41:07.587Z,12.40
2022-10-06T05:43:44.633Z,12.88
2022-10-06T05:46:17.599Z,13.25
2022-10-06T05:48:50.480Z,13.52
2022-10-06T05:51:18.220Z,13.73
2022-10-06T05:53:45.445Z,14.00
2022-10-06T05:56:13.341Z,14.11
2022-10-06T05:58:40.922Z,13.98
2022-10-06T06:01:12.275Z,13.98
2022-10-06T06:03:39.835Z,14.17
2022-10-06T06:06:35.779Z,14.52
2022-10-06T06:09:07.852Z,15.04
2022-10-06T06:11:35.736Z,15.79
2022-10-06T06:14:03.989Z,15.89
2022-10-06T06:16:33.765Z,16.31
2022-10-06T06:19:01.446Z,16.90
2022-10-06T06:21:28.675Z,17.48
2022-10-06T06:23:55.828Z,17.31
2022-10-06T06:26:27.242Z,17.52
2022-10-06T06:28:55.285Z,18.16
2022-10-06T06:31:23.617Z,18.19
2022-10-06T06:33:57.347Z,18.44
2022-10-06T06:36:26.039Z,18.80
2022-10-06T06:38:54.190Z,18.50
2022-10-06T06:41:20.960Z,18.77
2022-10-06T06:43:48.147Z,19.29
2022-10-06T06:46:15.407Z,19.41
2022-10-06T06:48:42.475Z,20.13
2022-10-06T06:51:11.888Z,19.86
2022-10-06T06:53:41.702Z,19.56
2022-10-06T06:56:09.668Z,19.82
2022-10-06T06:58:36.544Z,19.64
2022-10-06T07:01:06.411Z,20.14
2022-10-06T07:03:55.962Z,19.55
2022-10-06T07:06:21.849Z,20.37
2022-10-06T07:08:50.406Z,19.86
2022-10-06T07:11:27.037Z,19.97
2022-10-06T07:13:55.102Z,20.93
2022-10-06T07:16:41.510Z,20.93
2022-10-06T07:19:28.555Z,20.99
2022-10-06T07:22:20.646Z,21.16
2022-10-06T07:25:06.257Z,21.51
2022-10-06T07:27:43.183Z,21.60
2022-10-06T07:30:15.221Z,21.86
2022-10-06T07:32:42.058Z,21.63
2022-10-06T07:35:08.968Z,21.46
2022-10-06T07:37:35.793Z,21.01
2022-10-06T07:40:02.804Z,21.93
2022-10-06T07:42:29.565Z,21.83
2022-10-06T07:45:14.410Z,22.17
2022-10-06T07:47:41.180Z,22.33
2022-10-06T07:50:08.765Z,21.79
2022-10-06T07:52:39.467Z,22.41
2022-10-06T07:55:07.015Z,22.56
2022-10-06T07:57:35.575Z,22.16
2022-10-06T08:00:05.706Z,22.50
2022-10-06T08:02:35.615Z,22.76
2022-10-06T08:05:03.217Z,23.04
2022-10-06T08:07:29.946Z,22.98
2022-10-06T08:09:56.783Z,23.12
2022-10-06T08:12:37.896Z,22.40
2022-10-06T08:15:11.511Z,21.73
2022-10-06T08:17:38.669Z,22.13
2022-10-06T08:20:06.577Z,21.71
2022-10-06T08:22:33.501Z,22.08
2022-10-06T08:25:07.465Z,22.74
2022-10-06T08:27:35.639Z,23.11
2022-10-06T08:30:02.952Z,23.28
2022-10-06T08:32:29.761Z,23.61
2022-10-06T08:34:57.012Z,23.76
2022-10-06T08:37:24.740Z,22.74
2022-10-06T08:39:51.863Z,22.10
2022-10-06T08:42:25.195Z,21.65
2022-10-06T08:44:59.032Z,21.43
2022-10-06T08:47:28.163Z,22.09
2022-10-06T08:49:55.905Z,22.49
2022-10-06T08:52:35.137Z,23.04
2022-10-06T08:55:01.827Z,22.74
2022-10-06T08:57:39.438Z,23.23
2022-10-06T09:00:11.048Z,23.96
2022-10-06T09:02:39.513Z,24.17
2022-10-06T09:05:06.708Z,24.22
2022-10-06T09:07:36.068Z,24.88
2022-10-06T09:10:08.772Z,24.22
2022-10-06T09:12:52.214Z,24.46
2022-10-06T09:15:46.914Z,24.02
2022-10-06T09:18:49.886Z,24.26
2022-10-06T09:21:19.976Z,24.85
2022-10-06T09:23:54.079Z,24.93
2022-10-06T09:26:22.639Z,24.85
2022-10-06T09:28:50.376Z,24.29
2022-10-06T09:31:24.952Z,24.59
2022-10-06T09:33:53.990Z,24.01
2022-10-06T09:36:20.674Z,24.61
2022-10-06T09:38:48.658Z,24.76
2022-10-06T09:41:16.055Z,24.57
2022-10-06T09:43:52.576Z,24.22
2022-10-06T09:46:41.875Z,24.90
2022-10-06T09:49:17.271Z,23.73
2022-10-06T09:51:59.283Z,24.78
2022-10-06T09:54:26.331Z,25.40
2022-10-06T09:56:54.181Z,25.67
2022-10-06T09:59:22.711Z,25.28
2022-10-06T10:01:53.940Z,25.45
2022-10-06T10:04:31.253Z,25.18
2022-10-06T10:07:14.410Z,25.25
2022-10-06T10:09:42.259Z,25.24
2022-10-06T10:12:33.371Z,25.10
2022-10-06T10:15:04.854Z,25.37
2022-10-06T10:17:45.347Z,25.37
2022-10-06T10:20:38.194Z,24.77
2022-10-06T10:23:17.162Z,24.71
2022-10-06T10:25:46.839Z,24.95
2022-10-06T10:28:17.522Z,24.24
2022-10-06T10:30:50.180Z,24.26
2022-10-06T10:35:51.270Z,23.25
2022-10-06T10:38:22.699Z,24.34
2022-10-06T10:40:51.833Z,24.53
2022-10-06T10:43:23.051Z,24.71
2022-10-06T10:45:59.790Z,24.90
2022-10-06T10:48:32.964Z,24.78
2022-10-06T10:51:32.148Z,24.57
2022-10-06T10:54:02.544Z,24.71
2022-10-06T10:56:31.685Z,24.93
2022-10-06T10:59:07.374Z,24.92
2022-10-06T11:01:38.732Z,24.77
2022-10-06T11:04:10.344Z,24.50
2022-10-06T11:06:44.301Z,24.49
2022-10-06T11:09:29.687Z,24.54
2022-10-06T11:11:59.510Z,24.92
2022-10-06T11:14:49.404Z,24.90
2022-10-06T11:17:26.096Z,24.96
2022-10-06T11:20:11.508Z,24.89
2022-10-06T11:22:43.058Z,24.85
2022-10-06T11:25:21.380Z,24.66
2022-10-06T11:28:11.666Z,24.90
2022-10-06T11:30:46.006Z,24.74
2022-10-06T11:33:25.845Z,24.67
2022-10-06T11:35:52.779Z,24.69
2022-10-06T11:38:22.237Z,24.47
2022-10-06T11:41:01.175Z,24.54
2022-10-06T11:43:46.521Z,24.34
2022-10-06T11:46:13.482Z,24.29
2022-10-06T11:48:40.779Z,24.48
2022-10-06T11:51:25.866Z,24.48
2022-10-06T11:53:53.032Z,24.47
2022-10-06T11:56:19.650Z,24.53
2022-10-06T11:58:52.645Z,24.35
2022-10-06T12:01:31.665Z,24.37
2022-10-06T12:04:05.142Z,24.58
2022-10-06T12:06:47.077Z,24.41
2022-10-06T12:09:26.267Z,24.23
2022-10-06T12:11:53.858Z,24.08
2022-10-06T12:16:00.155Z,24.09
2022-10-06T12:17:19.595Z,24.18
2022-10-06T12:20:01.841Z,24.13
2022-10-06T12:22:54.914Z,24.11
2022-10-06T12:25:30.895Z,23.90
2022-10-06T12:27:58.404Z,23.66
2022-10-06T12:30:30.543Z,23.68
2022-10-06T12:32:58.097Z,23.89
2022-10-06T12:35:35.265Z,23.66
2022-10-06T12:38:06.253Z,23.70
2022-10-06T12:40:41.764Z,23.49
2022-10-06T12:43:24.094Z,23.38
2022-10-06T12:46:05.045Z,23.07
2022-10-06T12:48:31.813Z,23.12
2022-10-06T12:51:03.206Z,23.04
2022-10-06T12:53:34.785Z,23.18
2022-10-06T12:56:04.074Z,23.24
2022-10-06T12:58:32.578Z,23.30
2022-10-06T13:01:07.720Z,23.36
2022-10-06T13:03:34.709Z,23.22
2022-10-06T13:06:03.385Z,23.12
2022-10-06T13:08:31.398Z,23.15
2022-10-06T13:11:11.058Z,23.03
2022-10-06T13:13:46.224Z,23.01
2022-10-06T13:16:14.769Z,22.99
2022-10-06T13:18:41.787Z,23.02
2022-10-06T13:21:13.451Z,22.89
2022-10-06T13:23:40.732Z,22.85
2022-10-06T13:26:14.478Z,22.74
2022-10-06T13:28:43.909Z,22.67
2022-10-06T13:31:24.202Z,22.53
2022-10-06T13:33:54.278Z,22.38
2022-10-06T13:36:23.585Z,22.44
2022-10-06T13:38:50.445Z,22.43
2022-10-06T13:41:17.775Z,22.41
2022-10-06T13:43:52.714Z,22.30
2022-10-06T13:46:22.105Z,22.05
2022-10-06T13:48:54.638Z,22.21
2022-10-06T13:51:24.175Z,22.18
2022-10-06T13:53:52.181Z,22.25
2022-10-06T13:56:32.884Z,22.26
2022-10-06T13:59:14.523Z,22.07
2022-10-06T14:01:41.257Z,22.08
2022-10-06T14:04:12.332Z,22.05
2022-10-06T14:06:45.787Z,22.02
2022-10-06T14:09:15.294Z,21.96
2022-10-06T14:11:43.494Z,22.03
2022-10-06T14:14:15.185Z,22.03
2022-10-06T14:16:46.570Z,22.09
2022-10-06T14:19:42.444Z,22.11
2022-10-06T14:22:27.654Z,22.11
2022-10-06T14:24:54.732Z,22.03
2022-10-06T14:27:21.361Z,22.05
2022-10-06T14:29:47.975Z,21.87
2022-10-06T14:32:15.604Z,21.80
2022-10-06T14:34:42.674Z,21.83
2022-10-06T14:37:15.549Z,21.70
2022-10-06T14:39:43.062Z,21.70
2022-10-06T14:42:10.366Z,21.78
2022-10-06T14:44:38.103Z,21.63
2022-10-06T14:47:06.563Z,21.48
2022-10-06T14:49:33.495Z,21.47
2022-10-06T14:52:00.254Z,21.43
2022-10-06T14:54:27.057Z,21.43
2022-10-06T14:56:53.854Z,21.23
2022-10-06T14:59:21.356Z,21.21
2022-10-06T15:01:48.881Z,21.14
2022-10-06T15:04:17.011Z,21.09
2022-10-06T15:07:02.274Z,21.00
2022-10-06T15:09:31.002Z,20.97
2022-10-06T15:11:58.233Z,20.86
2022-10-06T15:14:24.968Z,20.78
2022-10-06T15:16:51.883Z,20.68
2022-10-06T15:19:18.616Z,20.67
2022-10-06T15:21:45.581Z,20.66
2022-10-06T15:24:14.174Z,20.53
2022-10-06T15:26:59.726Z,20.44
2022-10-06T15:29:26.724Z,20.36
2022-10-06T15:31:54.815Z,20.27
2022-10-06T15:34:24.275Z,20.15
2022-10-06T15:36:52.788Z,20.07
2022-10-06T15:39:20.805Z,19.95
2022-10-06T15:41:47.674Z,19.87
2022-10-06T15:44:14.895Z,19.74
2022-10-06T15:46:45.996Z,19.61
2022-10-06T15:49:12.698Z,19.59
2022-10-06T15:51:47.582Z,19.42
2022-10-06T15:54:22.095Z,19.29
2022-10-06T15:56:53.555Z,19.21
2022-10-06T15:59:26.825Z,19.12
2022-10-06T16:01:57.632Z,18.89
2022-10-06T16:04:25.534Z,18.82
2022-10-06T16:06:56.495Z,18.74
2022-10-06T16:09:24.715Z,18.60
2022-10-06T16:11:51.684Z,18.53
2022-10-06T16:14:18.491Z,18.48
2022-10-06T16:16:46.251Z,18.42
2022-10-06T16:19:13.854Z,18.37
2022-10-06T16:21:40.564Z,18.25
2022-10-06T16:24:07.461Z,18.19
2022-10-06T16:26:34.576Z,18.09
2022-10-06T16:29:01.276Z,18.01
2022-10-06T16:31:28.313Z,17.85
2022-10-06T16:33:55.090Z,17.76
2022-10-06T16:36:22.101Z,17.65
2022-10-06T16:38:52.611Z,17.56
2022-10-06T16:41:19.935Z,17.45
2022-10-06T16:43:48.265Z,17.37
2022-10-06T16:46:16.548Z,17.23
2022-10-06T16:48:44.514Z,17.10
2022-10-06T16:51:12.549Z,17.04
2022-10-06T16:53:40.727Z,16.97
2022-10-06T16:56:08.783Z,16.89
2022-10-06T16:58:39.663Z,16.85
2022-10-06T17:01:07.086Z,16.79
2022-10-06T17:03:33.926Z,16.62
2022-10-06T17:06:08.143Z,16.62
2022-10-06T17:08:35.020Z,16.56
2022-10-06T17:11:02.869Z,16.52
2022-10-06T17:13:29.880Z,16.46
2022-10-06T17:16:00.569Z,16.39
2022-10-06T17:18:27.334Z,16.38
2022-10-06T17:20:58.074Z,16.37
2022-10-06T17:23:25.063Z,16.36
2022-10-06T17:26:08.834Z,16.31
2022-10-06T17:28:36.058Z,16.37
2022-10-06T17:31:02.775Z,16.36
2022-10-06T17:33:32.688Z,16.37
2022-10-06T17:36:12.880Z,16.35
2022-10-06T17:38:43.804Z,16.33
2022-10-06T17:41:11.916Z,16.24
2022-10-06T17:43:39.914Z,16.13
2022-10-06T17:46:07.577Z,16.03
2022-10-06T17:48:34.303Z,16.00
2022-10-06T17:51:01.818Z,15.91
2022-10-06T17:53:28.610Z,15.91
2022-10-06T17:55:55.336Z,15.83
2022-10-06T17:58:22.686Z,15.70
2022-10-06T18:00:50.079Z,15.65
2022-10-06T18:03:17.652Z,15.66
2022-10-06T18:05:52.685Z,15.55
2022-10-06T18:08:19.419Z,15.51
2022-10-06T18:11:07.825Z,15.43
2022-10-06T18:13:34.472Z,15.50
2022-10-06T18:16:01.197Z,15.54
2022-10-06T18:18:28.094Z,15.55
2022-10-06T18:21:02.266Z,15.54
2022-10-06T18:23:31.485Z,15.48
2022-10-06T18:26:01.875Z,15.42
2022-10-06T18:28:29.004Z,15.32
2022-10-06T18:30:55.795Z,15.30
2022-10-06T18:36:14.786Z,15.14
2022-10-06T18:38:44.263Z,15.09
2022-10-06T18:41:13.122Z,15.05
2022-10-06T18:43:40.234Z,14.94
2022-10-06T18:46:26.371Z,14.85
2022-10-06T18:48:56.416Z,14.81
2022-10-06T18:51:24.200Z,14.71
2022-10-06T18:53:51.135Z,14.75
2022-10-06T18:56:17.776Z,14.69
2022-10-06T18:58:44.782Z,14.57
2022-10-06T19:01:12.777Z,14.51
2022-10-06T19:03:40.101Z,14.42
2022-10-06T19:06:07.513Z,14.36
2022-10-06T19:08:34.581Z,14.27
2022-10-06T19:11:23.998Z,14.23
2022-10-06T19:13:53.256Z,14.18
2022-10-06T19:16:20.304Z,14.15
2022-10-06T19:18:47.116Z,14.19
2022-10-06T19:21:13.933Z,14.23
2022-10-06T19:23:41.394Z,14.07
2022-10-06T19:26:09.484Z,14.16
2022-10-06T19:28:37.861Z,14.18
2022-10-06T19:31:06.420Z,14.17
2022-10-06T19:33:33.183Z,14.12
2022-10-06T19:36:00.720Z,14.13
2022-10-06T19:38:28.303Z,14.09
2022-10-06T19:41:17.197Z,14.10
2022-10-06T19:43:43.934Z,13.92
2022-10-06T19:46:10.869Z,13.90
2022-10-06T19:48:37.689Z,13.85
2022-10-06T19:51:12.434Z,13.85
2022-10-06T19:53:39.124Z,13.79
2022-10-06T19:56:05.914Z,13.74
2022-10-06T19:58:33.466Z,13.78
2022-10-06T20:01:04.141Z,13.82
2022-10-06T20:03:32.123Z,13.79
2022-10-06T20:06:02.656Z,13.70
2022-10-06T20:08:32.192Z,13.71
2022-10-06T20:11:17.146Z,13.71
2022-10-06T20:13:44.788Z,13.64
2022-10-06T20:16:13.093Z,13.63
2022-10-06T20:18:41.083Z,13.54
2022-10-06T20:21:16.735Z,13.47
2022-10-06T20:23:50.746Z,13.40
2022-10-06T20:26:18.719Z,13.33
2022-10-06T20:28:46.429Z,13.25
2022-10-06T20:31:39.515Z,13.18
2022-10-06T20:34:07.484Z,13.19
2022-10-06T20:36:35.024Z,13.26
2022-10-06T20:39:21.184Z,13.24
2022-10-06T20:41:48.503Z,13.26
2022-10-06T20:44:15.136Z,13.20
2022-10-06T20:46:41.976Z,13.14
2022-10-06T20:49:10.076Z,13.08
2022-10-06T20:51:38.424Z,13.02
2022-10-06T20:54:05.904Z,13.12
2022-10-06T20:56:34.865Z,13.15
2022-10-06T20:59:07.733Z,13.01
2022-10-06T21:01:35.417Z,12.95
2022-10-06T21:04:02.668Z,12.90
2022-10-06T21:06:29.936Z,12.91
2022-10-06T21:08:57.057Z,12.90
2022-10-06T21:11:24.366Z,12.91
2022-10-06T21:13:54.414Z,12.86
2022-10-06T21:16:23.221Z,12.86
2022-10-06T21:18:50.329Z,12.83
2022-10-06T21:21:16.973Z,12.82
2022-10-06T21:23:44.937Z,12.75
2022-10-06T21:26:12.623Z,12.59
2022-10-06T21:28:40.017Z,12.61
2022-10-06T21:31:08.196Z,12.58
2022-10-06T21:33:41.065Z,12.54
2022-10-06T21:36:10.230Z,12.57
2022-10-06T21:38:39.297Z,12.55
2022-10-06T21:41:26.171Z,12.59
2022-10-06T21:44:11.258Z,12.66
2022-10-06T21:46:38.013Z,12.60
2022-10-06T21:49:06.029Z,12.57
2022-10-06T21:51:33.153Z,12.55
2022-10-06T21:54:00.524Z,12.50
2022-10-06T21:56:28.102Z,12.55
2022-10-06T21:58:55.917Z,12.61
2022-10-06T22:01:24.541Z,12.50
2022-10-06T22:03:51.187Z,12.55
2022-10-06T22:06:19.614Z,12.42
2022-10-06T22:08:46.782Z,12.42
2022-10-06T22:11:17.953Z,12.39
2022-10-06T22:13:46.194Z,12.31
2022-10-06T22:16:14.694Z,12.29
2022-10-06T22:18:42.045Z,12.27
2022-10-06T22:21:13.413Z,12.22
2022-10-06T22:23:41.368Z,12.25
2022-10-06T22:26:08.715Z,12.24
2022-10-06T22:28:35.778Z,12.22
2022-10-06T22:31:03.740Z,12.13
2022-10-06T22:33:30.876Z,12.18
2022-10-06T22:35:57.573Z,12.07
2022-10-06T22:38:24.382Z,12.10
2022-10-06T22:40:59.113Z,12.04
2022-10-06T22:43:25.933Z,12.07
2022-10-06T22:45:52.570Z,12.05
2022-10-06T22:48:19.639Z,12.06
2022-10-06T22:50:47.383Z,12.13
2022-10-06T22:53:17.814Z,12.01
2022-10-06T22:55:44.610Z,12.10
2022-10-06T22:58:12.286Z,11.99
2022-10-06T23:00:39.513Z,12.12
2022-10-06T23:03:06.441Z,12.13
2022-10-06T23:05:33.222Z,12.18
2022-10-06T23:08:00.003Z,12.18
2022-10-06T23:10:29.690Z,12.18
2022-10-06T23:12:57.802Z,12.20
2022-10-06T23:15:25.193Z,12.18
2022-10-06T23:17:52.149Z,12.00
2022-10-06T23:20:19.481Z,12.02
2022-10-06T23:22:46.490Z,11.97
2022-10-06T23:25:13.472Z,11.94
2022-10-06T23:27:40.724Z,12.01
2022-10-06T23:30:07.779Z,12.06
2022-10-06T23:32:34.495Z,12.16
2022-10-06T23:35:01.299Z,12.12
2022-10-06T23:37:28.502Z,12.18
2022-10-06T23:39:55.129Z,12.11
2022-10-06T23:42:21.995Z,12.10
2022-10-06T23:44:55.451Z,12.03
2022-10-06T23:47:22.141Z,12.05
2022-10-06T23:49:48.822Z,11.95
2022-10-06T23:52:15.463Z,12.03
2022-10-06T23:54:42.111Z,11.97
2022-10-06T23:57:09.509Z,11.91
2022-10-06T23:59:36.280Z,11.93
